Weather reports worldwide

Advertisment
Epinal, France (7173): temperature & dewpoint: 12.01.2018 06:00:00 - 18.01.2018 06:00:00 (CET)Epinal, France (7173): wind speed & gusts: 12.01.2018 06:00:00 - 18.01.2018 06:00:00 (CET)Epinal, France (7173): wind direction: 12.01.2018 06:00:00 - 18.01.2018 06:00:00 (CET)Epinal, France (7173): sunshine duration: 12.01.2018 06:00:00 - 18.01.2018 06:00:00 (CET)Epinal, France (7173): precipitation: 12.01.2018 06:00:00 - 18.01.2018 06:00:00 (CET)
Date & Time tt [°C] td [°C] ff [km/h] ff [kn] fx [km/h] fx [kn] dd sd [min] rr [mm]
18.01.2018 06:00:00 2,8 1,5 34 18 59 32 SSW 0 2,0
18.01.2018 05:00:00 3,3 2,0 28 15 59 32 SSW 0 1,0
18.01.2018 04:00:00 3,2 1,7 28 15 54 29 SSW 0 0,6
18.01.2018 03:00:00 3,4 1,3 24 13 46 25 SSW 0 0,2
18.01.2018 02:00:00 3,8 0,5 28 15 46 25 SSW 0 0,0
18.01.2018 01:00:00 3,6 0,6 24 13 39 21 SSW 0 -
18.01.2018 00:00:00 3,3 0,5 18 10 31 17 SSW 0 0,0
17.01.2018 23:00:00 3,2 0,4 18 10 31 17 SSW 0 0,0
17.01.2018 22:00:00 3,3 -0,2 18 10 48 26 SSW 0 0,0
17.01.2018 21:00:00 3,6 -0,4 18 10 37 20 SW 0 0,0
17.01.2018 20:00:00 3,3 -0,3 16 9 29 16 SSW 0 0,0
17.01.2018 19:00:00 3,0 0,1 18 10 29 16 SW 0 -
17.01.2018 18:00:00 3,1 0,5 22 12 44 24 SW 0 0,0
17.01.2018 17:00:00 3,6 -0,1 21 11 46 25 WSW 0 0,0
17.01.2018 16:00:00 4,4 -0,6 22 12 44 24 WSW 0 0,0
17.01.2018 15:00:00 4,4 -0,8 24 13 50 27 WSW 12 0,0
17.01.2018 14:00:00 4,9 -0,3 28 15 50 27 WSW 18 0,0
17.01.2018 13:00:00 4,1 -0,3 22 12 50 27 WSW 30 -
17.01.2018 12:00:00 3,6 -0,6 29 16 54 29 W 30 0,0
17.01.2018 11:00:00 3,0 0,2 24 13 42 23 W 24 0,6
17.01.2018 10:00:00 2,2 -0,1 21 11 44 24 WSW 0 0,0
17.01.2018 09:00:00 2,3 0,0 24 13 44 24 SW 6 0,0
17.01.2018 08:00:00 1,4 0,2 22 12 52 28 WSW 0 0,4
17.01.2018 07:00:00 2,5 0,4 22 12 48 26 WSW 0 -
17.01.2018 06:00:00 3,4 0,1 28 15 50 27 WSW 0 0,0
17.01.2018 05:00:00 3,1 1,1 22 12 46 25 WSW 0 0,8
17.01.2018 04:00:00 3,2 1,7 26 14 46 25 SW 0 0,0
17.01.2018 03:00:00 2,9 1,4 24 13 44 24 SW 0 0,2
17.01.2018 02:00:00 2,9 1,4 26 14 59 32 WSW 0 1,0
17.01.2018 01:00:00 4,8 2,5 26 14 41 22 SW 0 -
17.01.2018 00:00:00 4,6 2,5 26 14 70 38 SW 0 0,6
16.01.2018 23:00:00 4,9 2,8 31 17 54 29 SW 0 0,6
16.01.2018 22:00:00 3,8 2,6 11 6 18 10 SW 0 0,0
16.01.2018 21:00:00 3,7 2,2 13 7 46 25 WSW 0 1,0
16.01.2018 20:00:00 4,7 3,7 9 5 35 19 W 0 0,8
16.01.2018 19:00:00 5,0 2,7 18 10 63 34 WSW 0 -
16.01.2018 18:00:00 4,6 2,8 22 12 41 22 NW 0 0,4
16.01.2018 17:00:00 7,3 3,3 22 12 46 25 SW 18 0,0
16.01.2018 16:00:00 8,7 3,9 26 14 48 26 SW 24 0,0
16.01.2018 15:00:00 8,9 4,5 22 12 48 26 WSW 36 0,0
16.01.2018 14:00:00 8,0 4,6 24 13 59 32 WSW 12 0,2
16.01.2018 13:00:00 6,9 4,9 22 12 61 33 W 0 -
16.01.2018 12:00:00 7,9 6,4 24 13 50 27 WSW 0 0,8
16.01.2018 11:00:00 0,3 -0,7 18 10 48 26 W 0 5,0
16.01.2018 10:00:00 0,4 -1,0 22 12 55 30 WSW 0 2,0
16.01.2018 09:00:00 0,9 -0,9 28 15 54 29 SW 0 0,0
16.01.2018 08:00:00 1,1 -0,7 34 18 57 31 SW 0 0,2
16.01.2018 07:00:00 0,9 -0,4 29 16 55 30 SSW 0 -
16.01.2018 06:00:00 0,9 -0,3 34 18 59 32 SSW 0 0,8
16.01.2018 05:00:00 0,8 -0,2 29 16 55 30 SSW 0 1,0
16.01.2018 04:00:00 0,6 -0,4 34 18 55 30 SSW 0 1,0
16.01.2018 03:00:00 0,4 -0,6 29 16 52 28 SSW 0 1,0
16.01.2018 02:00:00 0,6 -0,4 22 12 61 33 SW 0 1,0
16.01.2018 01:00:00 0,7 -0,6 35 19 65 35 SSW 0 -
16.01.2018 00:00:00 0,6 -0,7 35 19 61 33 SSW 0 0,6
15.01.2018 23:00:00 0,6 -0,7 34 18 70 38 SSW 0 1,0
15.01.2018 22:00:00 0,6 -0,9 37 20 85 46 SSW 0 1,0
15.01.2018 21:00:00 0,4 -1,0 39 21 80 43 SSW 0 1,0
15.01.2018 20:00:00 0,6 -1,0 39 21 74 40 SSW 0 2,0
15.01.2018 19:00:00 0,2 -1,2 37 20 65 35 SSW 0 -
15.01.2018 18:00:00 0,8 -1,1 35 19 68 37 SSW 0 2,0
15.01.2018 17:00:00 1,5 -2,8 34 18 68 37 SSW 0 0,0
15.01.2018 16:00:00 1,4 -2,7 29 16 54 29 SSW 0 0,0
15.01.2018 15:00:00 1,1 -2,1 22 12 46 25 S 0 0,0
15.01.2018 14:00:00 1,2 -2,7 21 11 42 23 SSW 0 0,0
15.01.2018 13:00:00 1,1 -2,5 22 12 37 20 SSW 0 -
15.01.2018 12:00:00 0,6 -3,0 16 9 28 15 S 0 0,0
15.01.2018 11:00:00 0,4 -3,2 15 8 29 16 S 0 0,0
15.01.2018 10:00:00 0,3 -3,3 13 7 26 14 S 0 0,0
15.01.2018 09:00:00 0,2 -3,4 15 8 34 18 S 0 0,0
15.01.2018 08:00:00 0,2 -3,5 13 7 24 13 S 0 0,0
15.01.2018 07:00:00 0,2 -3,4 9 5 22 12 S 0 -
15.01.2018 06:00:00 -0,1 -3,6 8 4 13 7 S 0 0,0
15.01.2018 05:00:00 -1,2 -3,9 5 3 11 6 S 0 0,0
15.01.2018 04:00:00 -3,0 -4,0 4 2 11 6 S 0 0,0
15.01.2018 03:00:00 -3,2 -3,6 2 1 4 2 SE 0 0,0
15.01.2018 02:00:00 -3,5 -3,9 0 0 4 2 N 0 0,0
15.01.2018 01:00:00 -3,5 -3,8 2 1 4 2 E 0 -
15.01.2018 00:00:00 -4,1 -4,4 2 1 5 3 ESE 0 0,0
14.01.2018 23:00:00 -4,1 -4,4 2 1 4 2 ESE 0 0,0
14.01.2018 22:00:00 -4,6 -4,9 0 0 4 2 N 0 0,0
14.01.2018 21:00:00 -4,5 -4,9 0 0 4 2 N 0 0,0
14.01.2018 20:00:00 -3,8 -4,3 0 0 8 4 N 0 0,0
14.01.2018 19:00:00 -3,0 -3,7 0 0 5 3 N 0 -
14.01.2018 18:00:00 -1,9 -3,2 2 1 4 2 E 0 0,0
14.01.2018 17:00:00 0,1 -2,3 0 0 4 2 N 0 0,0
14.01.2018 16:00:00 3,3 -2,5 4 2 8 4 W 54 0,0
14.01.2018 15:00:00 3,5 -1,9 5 3 8 4 NW 60 0,0
14.01.2018 14:00:00 3,6 -2,0 5 3 8 4 NNW 48 0,0
14.01.2018 13:00:00 3,7 -2,3 2 1 4 2 NNW 60 -
14.01.2018 12:00:00 3,1 -0,9 2 1 4 2 NNE 60 0,0
14.01.2018 11:00:00 0,8 -1,1 0 0 4 2 N 60 0,0
14.01.2018 10:00:00 -1,1 -2,2 2 1 5 3 WNW 60 0,0
14.01.2018 09:00:00 -3,9 -4,3 0 0 4 2 N 12 0,0
14.01.2018 08:00:00 -4,5 -4,9 0 0 4 2 N 0 0,0
14.01.2018 07:00:00 -4,5 -4,9 2 1 5 3 E 0 -
14.01.2018 06:00:00 -4,5 -4,9 2 1 4 2 ESE 0 0,0
14.01.2018 05:00:00 -4,3 -4,7 0 0 4 2 N 0 0,0
14.01.2018 04:00:00 -4,0 -4,4 0 0 5 3 N 0 0,0
14.01.2018 03:00:00 -3,9 -4,3 0 0 4 2 N 0 0,0
14.01.2018 02:00:00 -3,9 -4,3 4 2 5 3 ESE 0 0,0
14.01.2018 01:00:00 -4,1 -4,5 0 0 4 2 N 0 -
14.01.2018 00:00:00 -3,7 -4,1 0 0 4 2 N 0 0,0
13.01.2018 23:00:00 -3,5 -3,9 0 0 4 2 N 0 0,0
13.01.2018 22:00:00 -3,0 -3,3 2 1 4 2 E 0 0,0
13.01.2018 21:00:00 -2,7 -3,1 0 0 4 2 N 0 0,0
13.01.2018 20:00:00 -2,4 -3,1 0 0 4 2 N 0 0,0
13.01.2018 19:00:00 -1,6 -2,7 0 0 4 2 N 0 -
13.01.2018 18:00:00 0,0 -1,8 2 1 4 2 E 0 0,0
13.01.2018 17:00:00 3,5 -1,3 4 2 9 5 NNE 30 0,0
13.01.2018 16:00:00 5,4 -0,9 4 2 11 6 NNE 60 0,0
13.01.2018 15:00:00 5,3 -0,5 5 3 13 7 NE 60 0,0
13.01.2018 14:00:00 4,6 -0,2 8 4 15 8 NE 60 0,0
13.01.2018 13:00:00 2,9 1,3 0 0 4 2 N 60 -
13.01.2018 12:00:00 0,0 -0,3 0 0 4 2 N 60 0,0
13.01.2018 11:00:00 -2,4 -2,5 0 0 4 2 N 42 0,0
13.01.2018 10:00:00 -3,1 -3,2 0 0 4 2 N 48 0,0
13.01.2018 09:00:00 -4,1 -4,2 0 0 5 3 N 0 0,0
13.01.2018 08:00:00 -3,8 -3,9 0 0 4 2 N 0 0,0
13.01.2018 07:00:00 -3,9 -4,0 0 0 4 2 N 0 -
13.01.2018 06:00:00 -3,0 -3,0 2 1 5 3 SSE 0 0,0
13.01.2018 05:00:00 -2,5 -2,5 0 0 5 3 N 0 0,0
13.01.2018 04:00:00 -1,8 -1,8 2 1 4 2 ESE 0 0,0
13.01.2018 03:00:00 -1,2 -1,2 0 0 4 2 N 0 0,0
13.01.2018 02:00:00 -1,5 -1,5 0 0 2 1 N 0 0,0
13.01.2018 01:00:00 -1,6 -1,6 2 1 5 3 W 0 -
13.01.2018 00:00:00 -1,6 -1,6 0 0 4 2 N 0 0,0
12.01.2018 23:00:00 -2,1 -2,2 2 1 4 2 SE 0 0,0
12.01.2018 22:00:00 -2,1 -2,2 0 0 4 2 N 0 0,0
12.01.2018 21:00:00 -1,8 -1,9 0 0 4 2 N 0 0,0
12.01.2018 20:00:00 -2,1 -2,5 0 0 5 3 N 0 0,0
12.01.2018 19:00:00 -0,1 -0,4 4 2 5 3 E 0 -
12.01.2018 18:00:00 1,1 0,7 0 0 5 3 N 0 0,0
12.01.2018 17:00:00 3,0 2,0 5 3 9 5 E 6 0,0
12.01.2018 16:00:00 4,0 2,5 4 2 9 5 NE 0 0,0
12.01.2018 15:00:00 3,8 2,5 5 3 16 9 NNE 0 0,0
12.01.2018 14:00:00 3,1 2,1 9 5 18 10 NE 0 0,0
12.01.2018 13:00:00 3,2 2,5 8 4 15 8 NNE 0 -
12.01.2018 12:00:00 2,7 2,6 8 4 13 7 N 0 0,0
12.01.2018 11:00:00 2,3 2,3 8 4 11 6 N 0 0,0
12.01.2018 10:00:00 2,2 2,2 5 3 9 5 N 0 0,0
12.01.2018 09:00:00 2,1 2,1 4 2 9 5 ENE 0 0,0
12.01.2018 08:00:00 2,3 2,3 2 1 4 2 NE 0 0,0
12.01.2018 07:00:00 2,1 2,1 0 0 4 2 N 0 -
12.01.2018 06:00:00 2,1 2,1 4 2 5 3 NNE 0 0,0

tt = temperature
td = dewpoint
ff = wind speed
fx = gusts
dd = wind direction
sd = sunshine duration
rr = precipitation

Next stations